createdAt,value
2023-01-09T00:01:30.233Z,8.03
2023-01-09T00:03:59.108Z,8.03
2023-01-09T00:06:27.119Z,8.02
2023-01-09T00:08:55.090Z,7.99
2023-01-09T00:11:23.395Z,7.96
2023-01-09T00:13:51.711Z,7.94
2023-01-09T00:16:20.333Z,7.88
2023-01-09T00:18:48.786Z,7.80
2023-01-09T00:21:17.457Z,7.85
2023-01-09T00:23:45.699Z,7.79
2023-01-09T00:26:18.009Z,7.81
2023-01-09T00:28:47.888Z,7.81
2023-01-09T00:31:16.511Z,7.82
2023-01-09T00:33:53.983Z,7.77
2023-01-09T00:36:22.231Z,7.82
2023-01-09T00:38:51.048Z,7.74
2023-01-09T00:41:31.358Z,7.66
2023-01-09T00:44:05.589Z,7.62
2023-01-09T00:46:37.463Z,7.63
2023-01-09T00:49:08.390Z,7.59
2023-01-09T00:51:37.978Z,7.65
2023-01-09T00:54:06.449Z,7.67
2023-01-09T00:56:36.971Z,7.63
2023-01-09T00:59:05.568Z,7.56
2023-01-09T01:01:33.872Z,7.52
2023-01-09T01:04:22.541Z,7.45
2023-01-09T01:07:19.805Z,7.48
2023-01-09T01:09:47.976Z,7.43
2023-01-09T01:12:16.579Z,7.40
2023-01-09T01:14:45.067Z,7.40
2023-01-09T01:17:13.740Z,7.34
2023-01-09T01:19:42.012Z,7.39
2023-01-09T01:22:10.377Z,7.32
2023-01-09T01:24:38.271Z,7.31
2023-01-09T01:27:06.865Z,7.30
2023-01-09T01:29:34.970Z,7.29
2023-01-09T01:32:03.813Z,7.28
2023-01-09T01:34:31.976Z,7.33
2023-01-09T01:37:00.296Z,7.32
2023-01-09T01:39:28.487Z,7.33
2023-01-09T01:41:56.893Z,7.35
2023-01-09T01:44:59.227Z,7.34
2023-01-09T01:48:05.409Z,7.37
2023-01-09T01:50:40.868Z,7.34
2023-01-09T01:53:18.486Z,7.38
2023-01-09T01:56:33.330Z,7.42
2023-01-09T01:59:13.921Z,7.41
2023-01-09T02:01:46.991Z,7.43
2023-01-09T02:04:15.642Z,7.46
2023-01-09T02:06:47.382Z,7.40
2023-01-09T02:09:18.373Z,7.32
2023-01-09T02:11:48.122Z,7.30
2023-01-09T02:14:17.481Z,7.27
2023-01-09T02:17:23.442Z,7.22
2023-01-09T02:20:13.320Z,7.20
2023-01-09T02:22:56.693Z,7.23
2023-01-09T02:25:31.249Z,7.20
2023-01-09T02:27:59.391Z,7.24
2023-01-09T02:30:48.331Z,7.21
2023-01-09T02:33:34.562Z,7.25
2023-01-09T02:36:15.126Z,7.23
2023-01-09T02:39:16.526Z,7.27
2023-01-09T02:42:06.173Z,7.20
2023-01-09T02:44:37.409Z,7.18
2023-01-09T02:47:29.613Z,7.17
2023-01-09T02:50:04.413Z,7.23
2023-01-09T02:52:55.768Z,7.28
2023-01-09T02:55:52.269Z,7.15
2023-01-09T02:58:43.982Z,7.18
2023-01-09T03:01:45.584Z,7.15
2023-01-09T03:04:28.842Z,7.19
2023-01-09T03:07:10.281Z,7.24
2023-01-09T03:09:43.680Z,7.13
2023-01-09T03:12:23.078Z,7.18
2023-01-09T03:14:56.402Z,7.20
2023-01-09T03:17:40.197Z,7.21
2023-01-09T03:20:12.818Z,7.25
2023-01-09T03:22:53.287Z,7.21
2023-01-09T03:25:21.935Z,7.25
2023-01-09T03:27:56.375Z,7.20
2023-01-09T03:30:25.931Z,7.12
2023-01-09T03:32:54.253Z,7.26
2023-01-09T03:35:22.449Z,7.23
2023-01-09T03:37:52.092Z,7.15
2023-01-09T03:40:20.932Z,7.18
2023-01-09T03:42:49.612Z,7.25
2023-01-09T03:45:17.745Z,7.23
2023-01-09T03:47:46.367Z,7.09
2023-01-09T03:50:14.607Z,7.13
2023-01-09T03:52:42.771Z,7.17
2023-01-09T03:55:11.171Z,7.22
2023-01-09T03:57:39.891Z,7.24
2023-01-09T04:00:09.372Z,7.19
2023-01-09T04:02:40.467Z,7.17
2023-01-09T04:05:09.345Z,7.24
2023-01-09T04:07:37.826Z,7.27
2023-01-09T04:10:07.023Z,7.28
2023-01-09T04:12:35.362Z,7.30
2023-01-09T04:15:04.384Z,7.32
2023-01-09T04:17:33.023Z,7.32
2023-01-09T04:20:01.760Z,7.37
2023-01-09T04:22:31.667Z,7.34
2023-01-09T04:24:59.858Z,7.34
2023-01-09T04:27:28.381Z,7.35
2023-01-09T04:29:57.469Z,7.39
2023-01-09T04:32:28.415Z,7.40
2023-01-09T04:34:57.129Z,7.41
2023-01-09T04:37:25.661Z,7.44
2023-01-09T04:39:56.324Z,7.43
2023-01-09T04:42:24.966Z,7.40
2023-01-09T04:44:54.922Z,7.38
2023-01-09T04:47:24.346Z,7.36
2023-01-09T04:49:52.931Z,7.33
2023-01-09T04:52:21.445Z,7.25
2023-01-09T04:54:49.646Z,7.29
2023-01-09T04:57:18.726Z,7.32
2023-01-09T04:59:46.929Z,7.34
2023-01-09T05:02:15.312Z,7.34
2023-01-09T05:04:43.624Z,7.34
2023-01-09T05:07:12.200Z,7.37
2023-01-09T05:09:40.304Z,7.38
2023-01-09T05:12:08.495Z,7.41
2023-01-09T05:14:36.900Z,7.37
2023-01-09T05:17:04.948Z,7.35
2023-01-09T05:19:36.195Z,7.32
2023-01-09T05:22:04.309Z,7.34
2023-01-09T05:24:32.425Z,7.27
2023-01-09T05:27:03.431Z,7.27
2023-01-09T05:29:31.688Z,7.23
2023-01-09T05:31:59.993Z,7.24
2023-01-09T05:34:28.271Z,7.09
2023-01-09T05:36:56.953Z,7.18
2023-01-09T05:39:25.283Z,7.17
2023-01-09T05:41:53.470Z,7.21
2023-01-09T05:44:21.620Z,7.22
2023-01-09T17:21:24.812Z,5.54
2023-01-09T17:24:12.220Z,5.67
2023-01-09T17:27:01.663Z,5.75
2023-01-09T17:29:30.714Z,5.82
2023-01-09T17:31:59.377Z,5.91
2023-01-09T17:34:27.673Z,5.99
2023-01-09T17:36:56.055Z,6.07
2023-01-09T17:39:24.425Z,6.13
2023-01-09T17:41:53.072Z,6.15
2023-01-09T17:44:22.086Z,6.16
2023-01-09T17:46:52.394Z,6.17
2023-01-09T17:49:23.634Z,6.19
2023-01-09T17:51:53.905Z,6.22
2023-01-09T17:54:22.800Z,6.14
2023-01-09T17:56:51.519Z,6.12
2023-01-09T17:59:20.429Z,6.16
2023-01-09T18:01:49.192Z,6.18
2023-01-09T18:04:18.238Z,6.12
2023-01-09T18:06:47.068Z,6.07
2023-01-09T18:09:17.684Z,5.93
2023-01-09T18:11:48.537Z,5.95
2023-01-09T18:14:18.356Z,5.99
2023-01-09T18:16:46.888Z,5.96
2023-01-09T18:19:16.107Z,5.94
2023-01-09T18:21:48.468Z,5.93
2023-01-09T18:24:16.993Z,5.91
2023-01-09T18:26:45.543Z,5.88
2023-01-09T18:29:15.030Z,5.91
2023-01-09T18:31:47.675Z,5.92
2023-01-09T18:34:16.088Z,5.92
2023-01-09T18:36:44.618Z,6.06
2023-01-09T18:39:13.130Z,6.08
2023-01-09T18:41:41.739Z,6.21
2023-01-09T18:44:10.570Z,6.11
2023-01-09T18:46:39.813Z,6.16
2023-01-09T18:49:09.790Z,6.31
2023-01-09T18:51:43.400Z,6.30
2023-01-09T18:54:13.771Z,6.28
2023-01-09T18:56:44.391Z,6.32
2023-01-09T18:59:14.114Z,6.31
2023-01-09T19:01:44.047Z,6.37
2023-01-09T19:04:13.127Z,6.39
2023-01-09T19:06:42.093Z,6.49
2023-01-09T19:09:12.532Z,6.62
2023-01-09T19:11:44.690Z,6.64
2023-01-09T19:14:13.126Z,6.72
2023-01-09T19:16:41.598Z,6.73
2023-01-09T19:19:11.753Z,6.94
2023-01-09T19:21:40.690Z,6.93
2023-01-09T19:24:09.368Z,6.92
2023-01-09T19:26:42.696Z,6.83
2023-01-09T19:29:16.369Z,6.95
2023-01-09T19:31:47.687Z,6.80
2023-01-09T19:34:16.613Z,6.94
2023-01-09T19:36:45.821Z,6.98
2023-01-09T19:39:15.764Z,6.99
2023-01-09T19:41:44.883Z,7.04
2023-01-09T19:44:14.277Z,7.08
2023-01-09T19:46:42.685Z,7.02
2023-01-09T19:49:11.246Z,7.09
2023-01-09T19:51:39.804Z,7.05
2023-01-09T19:54:11.167Z,7.08
2023-01-09T19:56:41.759Z,7.11
2023-01-09T19:59:13.039Z,7.05
2023-01-09T20:01:46.041Z,7.07
2023-01-09T20:04:15.765Z,7.00
2023-01-09T20:06:46.896Z,7.06
2023-01-09T20:09:20.122Z,6.88
2023-01-09T20:11:50.322Z,6.80
2023-01-09T20:14:20.264Z,6.70
2023-01-09T20:16:50.648Z,6.68
2023-01-09T20:19:19.425Z,6.70
2023-01-09T20:21:48.196Z,6.68
2023-01-09T20:24:17.244Z,6.65
2023-01-09T20:26:49.637Z,6.38
2023-01-09T20:29:18.098Z,6.28
2023-01-09T20:31:46.656Z,6.35
2023-01-09T20:34:15.792Z,6.45
2023-01-09T20:36:44.503Z,6.43
2023-01-09T20:39:13.169Z,6.44
2023-01-09T20:41:41.774Z,6.42
2023-01-09T20:44:14.866Z,6.37
2023-01-09T20:46:48.363Z,6.40
2023-01-09T20:49:21.211Z,6.33
2023-01-09T20:51:52.723Z,6.35
2023-01-09T20:54:22.499Z,6.26
2023-01-09T20:56:51.241Z,5.92
2023-01-09T20:59:21.237Z,5.79
2023-01-09T21:01:51.045Z,5.82
2023-01-09T21:04:19.463Z,5.81
2023-01-09T21:06:50.009Z,5.35
2023-01-09T21:09:18.977Z,5.16
2023-01-09T21:11:47.476Z,5.30
2023-01-09T21:14:16.373Z,5.36
2023-01-09T21:16:53.722Z,5.39
2023-01-09T21:19:24.073Z,5.28
2023-01-09T21:21:53.488Z,5.20
2023-01-09T21:24:22.673Z,5.19
2023-01-09T21:26:51.306Z,5.29
2023-01-09T21:29:19.734Z,5.34
2023-01-09T21:31:48.557Z,5.38
2023-01-09T21:34:20.944Z,5.39
2023-01-09T21:36:49.697Z,5.33
2023-01-09T21:39:19.968Z,5.26
2023-01-09T21:42:06.780Z,5.17
2023-01-09T21:44:53.729Z,5.04
2023-01-09T21:47:22.202Z,4.94
2023-01-09T21:49:51.085Z,4.96
2023-01-09T21:52:19.612Z,5.04
2023-01-09T21:54:48.245Z,5.08
2023-01-09T21:57:16.730Z,5.14
2023-01-09T21:59:45.329Z,5.22
2023-01-09T22:02:16.563Z,5.24
2023-01-09T22:04:49.467Z,5.16
2023-01-09T22:07:18.784Z,5.06
2023-01-09T22:09:47.763Z,5.03
2023-01-09T22:12:16.304Z,4.95
2023-01-09T22:14:44.913Z,4.91
2023-01-09T22:17:13.448Z,4.88
2023-01-09T22:19:41.764Z,4.85
2023-01-09T22:22:10.005Z,4.84
2023-01-09T22:24:38.736Z,4.85
2023-01-09T22:27:07.760Z,4.87
2023-01-09T22:29:36.059Z,4.89
2023-01-09T22:32:04.816Z,4.90
2023-01-09T22:34:36.677Z,4.88
2023-01-09T22:37:04.892Z,4.89
2023-01-09T22:39:33.102Z,4.84
2023-01-09T22:42:01.621Z,4.82
2023-01-09T22:44:30.458Z,4.85
2023-01-09T22:46:59.469Z,4.85
2023-01-09T22:49:33.555Z,4.87
2023-01-09T22:52:10.055Z,4.91
2023-01-09T22:54:38.435Z,4.90
2023-01-09T22:57:06.925Z,4.89
2023-01-09T22:59:35.905Z,4.87
2023-01-09T23:02:04.340Z,4.83
2023-01-09T23:04:36.154Z,4.81
2023-01-09T23:07:04.868Z,4.77
2023-01-09T23:09:33.100Z,4.74
2023-01-09T23:12:04.351Z,4.72
2023-01-09T23:14:36.388Z,4.70
2023-01-09T23:17:07.063Z,4.69
2023-01-09T23:19:35.494Z,4.62
2023-01-09T23:22:05.602Z,4.54
2023-01-09T23:24:35.225Z,4.45
2023-01-09T23:27:05.047Z,4.39
2023-01-09T23:29:33.911Z,4.35
2023-01-09T23:32:07.599Z,4.36
2023-01-09T23:34:36.029Z,4.42
2023-01-09T23:37:09.704Z,4.46
2023-01-09T23:39:41.003Z,4.47
2023-01-09T23:42:29.865Z,4.51
2023-01-09T23:44:58.245Z,4.52
2023-01-09T23:47:26.785Z,4.53
2023-01-09T23:49:55.490Z,4.48
2023-01-09T23:52:24.029Z,4.51
2023-01-09T23:54:52.403Z,4.53
2023-01-09T23:57:21.333Z,4.56
2023-01-09T23:59:49.809Z,4.54
